createdAt,value
2022-12-26T00:02:34.660Z,20.42
2022-12-26T00:07:36.229Z,18.90
2022-12-26T00:12:37.733Z,20.80
2022-12-26T00:17:39.457Z,21.55
2022-12-26T00:22:40.916Z,21.00
2022-12-26T00:27:42.342Z,22.45
2022-12-26T00:32:43.888Z,21.65
2022-12-26T00:37:45.370Z,24.13
2022-12-26T00:42:46.958Z,29.13
2022-12-26T00:47:48.396Z,27.25
2022-12-26T00:52:49.876Z,54.10
2022-12-26T00:57:51.388Z,44.08
2022-12-26T01:02:52.959Z,40.97
2022-12-26T01:08:21.912Z,28.65
2022-12-26T01:13:15.921Z,38.88
2022-12-26T01:18:17.981Z,26.70
2022-12-26T01:23:19.422Z,28.25
2022-12-26T01:28:20.961Z,34.72
2022-12-26T01:33:22.378Z,29.08
2022-12-26T01:38:24.670Z,26.50
2022-12-26T01:43:26.148Z,25.83
2022-12-26T01:48:34.429Z,41.88
2022-12-26T01:53:39.558Z,35.70
2022-12-26T01:58:49.244Z,27.52
2022-12-26T02:04:09.996Z,28.15
2022-12-26T02:09:11.841Z,38.67
2022-12-26T02:14:13.491Z,29.27
2022-12-26T02:19:36.062Z,32.47
2022-12-26T02:25:05.746Z,33.45
2022-12-26T02:30:44.425Z,34.70
2022-12-26T02:36:12.183Z,41.60
2022-12-26T02:41:25.581Z,39.60
2022-12-26T02:47:01.365Z,35.58
2022-12-26T02:52:34.183Z,38.60
2022-12-26T02:58:04.255Z,52.70
2022-12-26T03:03:30.270Z,46.60
2022-12-26T03:09:02.403Z,36.22
2022-12-26T03:14:16.330Z,31.33
2022-12-26T03:19:19.978Z,28.38
2022-12-26T03:24:22.829Z,25.90
2022-12-26T03:29:43.126Z,24.02
2022-12-26T03:34:44.953Z,24.60
2022-12-26T03:40:12.622Z,24.08
2022-12-26T03:45:38.971Z,25.38
2022-12-26T03:51:07.653Z,24.38
2022-12-26T03:56:43.155Z,23.50
2022-12-26T04:02:07.410Z,27.02
2022-12-26T04:07:32.965Z,24.33
2022-12-26T04:13:07.277Z,23.23
2022-12-26T04:18:33.388Z,29.48
2022-12-26T04:24:04.713Z,25.77
2022-12-26T04:29:25.138Z,44.60
2022-12-26T04:34:51.754Z,34.72
2022-12-26T04:40:14.683Z,30.08
2022-12-26T04:45:16.496Z,39.55
2022-12-26T04:50:17.956Z,44.72
2022-12-26T04:55:19.487Z,39.95
2022-12-26T05:00:24.002Z,45.38
2022-12-26T05:05:44.051Z,28.27
2022-12-26T05:10:45.501Z,37.22
2022-12-26T05:16:05.493Z,36.45
2022-12-26T05:21:32.188Z,40.47
2022-12-26T05:26:52.074Z,39.17
2022-12-26T05:31:53.758Z,38.50
2022-12-26T05:36:58.580Z,37.47
2022-12-26T05:42:00.151Z,35.17
2022-12-26T05:47:01.705Z,38.60
2022-12-26T05:52:03.423Z,45.75
2022-12-26T05:57:04.873Z,34.72
2022-12-26T06:02:06.486Z,32.78
2022-12-26T06:07:08.023Z,36.33
2022-12-26T06:12:09.437Z,42.20
2022-12-26T06:17:11.219Z,36.72
2022-12-26T06:22:12.923Z,33.00
2022-12-26T06:27:14.375Z,32.03
2022-12-26T06:32:16.010Z,32.65
2022-12-26T06:37:17.465Z,33.28
2022-12-26T06:42:18.898Z,29.65
2022-12-26T06:47:20.467Z,29.27
2022-12-26T06:52:21.943Z,26.70
2022-12-26T06:57:23.378Z,25.63
2022-12-26T07:02:25.008Z,25.55
2022-12-26T07:07:26.589Z,22.98
2022-12-26T07:12:28.080Z,24.77
2022-12-26T07:17:29.579Z,24.05
2022-12-26T07:22:31.233Z,21.98
2022-12-26T07:27:32.709Z,22.30
2022-12-26T07:32:34.219Z,21.55
2022-12-26T07:37:35.684Z,23.60
2022-12-26T07:42:37.118Z,22.33
2022-12-26T07:47:38.659Z,25.75
2022-12-26T07:52:40.254Z,35.65
2022-12-26T07:57:49.664Z,31.60
2022-12-26T08:02:53.113Z,29.13
2022-12-26T08:07:54.584Z,30.17
2022-12-26T08:12:56.151Z,30.98
2022-12-26T08:17:57.894Z,31.45
2022-12-26T08:22:59.397Z,36.55
2022-12-26T08:28:00.944Z,30.35
2022-12-26T08:33:02.432Z,33.33
2022-12-26T08:38:04.758Z,43.50
2022-12-26T08:43:42.152Z,35.95
2022-12-26T08:48:28.928Z,38.97
2022-12-26T08:53:32.700Z,35.05
2022-12-26T08:58:35.281Z,32.63
2022-12-26T09:03:37.106Z,31.40
2022-12-26T09:08:39.352Z,30.23
2022-12-26T09:13:41.974Z,29.88
2022-12-26T09:18:45.216Z,32.10
2022-12-26T09:23:46.695Z,33.45
2022-12-26T09:28:48.250Z,29.92
2022-12-26T09:33:50.226Z,32.25
2022-12-26T09:38:52.584Z,30.42
2022-12-26T09:44:07.477Z,30.98
2022-12-26T09:49:26.294Z,30.40
2022-12-26T09:54:33.188Z,27.80
2022-12-26T09:59:46.058Z,22.48
2022-12-26T10:04:47.912Z,22.73
2022-12-26T10:10:18.695Z,20.65
2022-12-26T10:15:47.026Z,20.15
2022-12-26T10:21:03.732Z,19.13
2022-12-26T10:26:24.545Z,20.25
2022-12-26T10:31:35.246Z,20.25
2022-12-26T10:36:46.682Z,19.08
2022-12-26T10:41:52.507Z,18.90
2022-12-26T10:47:04.012Z,24.38
2022-12-26T10:52:05.630Z,22.10
2022-12-26T10:57:09.394Z,23.75
2022-12-26T11:02:22.874Z,25.83
2022-12-26T11:07:27.644Z,19.88
2022-12-26T11:17:54.090Z,20.00
2022-12-26T11:23:12.308Z,20.70
2022-12-26T11:28:34.462Z,19.95
2022-12-26T11:33:46.386Z,18.20
2022-12-26T11:38:50.067Z,21.35
2022-12-26T11:43:53.024Z,20.27
2022-12-26T11:48:54.575Z,43.70
2022-12-26T11:54:17.810Z,26.13
2022-12-26T11:59:22.098Z,23.90
2022-12-26T12:04:23.622Z,18.88
2022-12-26T12:09:46.814Z,19.75
2022-12-26T12:15:16.147Z,23.75
2022-12-26T12:20:25.088Z,16.40
2022-12-26T12:25:38.233Z,15.43
2022-12-26T12:31:00.541Z,12.82
2022-12-26T12:36:20.212Z,11.90
2022-12-26T12:41:59.720Z,12.00
2022-12-26T12:47:15.731Z,10.57
2022-12-26T12:52:38.323Z,8.02
2022-12-26T12:58:11.952Z,9.55
2022-12-26T13:03:36.583Z,11.43
2022-12-26T13:08:46.766Z,11.85
2022-12-26T13:14:12.078Z,16.92
2022-12-26T13:19:21.650Z,16.45
2022-12-26T13:24:35.363Z,19.40
2022-12-26T13:29:42.502Z,17.90
2022-12-26T13:34:45.681Z,27.80
2022-12-26T13:39:51.747Z,13.48
2022-12-26T13:44:54.025Z,15.68
2022-12-26T13:49:55.488Z,15.40
2022-12-26T13:54:57.357Z,12.82
2022-12-26T14:00:04.842Z,14.43
2022-12-26T14:05:18.783Z,12.02
2022-12-26T14:10:32.949Z,17.67
2022-12-26T14:15:40.992Z,20.35
2022-12-26T14:20:52.544Z,19.25
2022-12-26T14:26:23.472Z,9.63
2022-12-26T14:31:47.943Z,13.90
2022-12-26T14:36:55.300Z,30.83
2022-12-26T14:42:57.415Z,12.10
2022-12-26T14:47:59.162Z,14.10
2022-12-26T14:53:28.271Z,20.75
2022-12-26T14:58:40.749Z,11.77
2022-12-26T15:04:01.088Z,23.85
2022-12-26T15:09:08.485Z,16.35
2022-12-26T15:14:28.006Z,20.23
2022-12-26T15:19:54.130Z,17.00
2022-12-26T15:35:43.722Z,26.48
2022-12-26T15:41:00.819Z,47.43
2022-12-26T15:46:27.664Z,25.02
2022-12-26T15:51:44.265Z,24.33
2022-12-26T15:56:59.666Z,21.13
2022-12-26T16:02:01.638Z,17.15
2022-12-26T16:07:15.773Z,19.95
2022-12-26T16:12:28.789Z,19.60
2022-12-26T16:17:30.686Z,21.17
2022-12-26T16:22:46.320Z,22.63
2022-12-26T16:27:51.203Z,26.15
2022-12-26T16:32:53.795Z,20.17
2022-12-26T16:38:00.847Z,25.38
2022-12-26T16:43:27.822Z,11.40
2022-12-26T16:48:31.871Z,14.68
2022-12-26T16:53:36.357Z,11.95
2022-12-26T16:58:38.212Z,23.73
2022-12-26T17:03:52.024Z,22.92
2022-12-26T17:08:55.513Z,36.03
2022-12-26T17:13:58.162Z,16.77
2022-12-26T17:19:16.579Z,12.25
2022-12-26T17:24:25.365Z,24.75
2022-12-26T17:29:46.103Z,12.20
2022-12-26T17:34:48.029Z,13.43
2022-12-26T17:40:12.056Z,12.18
2022-12-26T17:45:33.973Z,10.10
2022-12-26T17:50:38.796Z,12.80
2022-12-26T17:55:41.346Z,18.10
2022-12-26T18:00:44.099Z,19.20
2022-12-26T18:05:47.356Z,17.00
2022-12-26T18:10:48.811Z,13.23
2022-12-26T18:15:51.725Z,9.68
2022-12-26T18:20:53.375Z,13.98
2022-12-26T18:26:00.493Z,17.33
2022-12-26T18:31:02.103Z,13.77
2022-12-26T18:36:07.625Z,14.40
2022-12-26T18:41:14.158Z,11.90
2022-12-26T18:46:25.253Z,10.77
2022-12-26T18:51:27.897Z,9.90
2022-12-26T18:56:29.624Z,12.00
2022-12-26T19:01:31.297Z,11.27
2022-12-26T19:06:35.172Z,13.63
2022-12-26T19:11:36.653Z,9.87
2022-12-26T19:16:38.708Z,14.82
2022-12-26T19:21:40.318Z,17.93
2022-12-26T19:26:41.793Z,13.63
2022-12-26T19:31:43.532Z,13.80
2022-12-26T19:36:45.102Z,19.87
2022-12-26T19:41:47.812Z,15.05
2022-12-26T19:46:49.279Z,20.48
2022-12-26T19:52:11.741Z,17.03
2022-12-26T19:57:13.149Z,15.37
2022-12-26T20:02:14.962Z,7.37
2022-12-26T20:07:16.528Z,15.90
2022-12-26T20:12:17.970Z,13.73
2022-12-26T20:17:19.503Z,20.43
2022-12-26T20:22:20.963Z,17.40
2022-12-26T20:27:22.556Z,18.93
2022-12-26T20:32:24.117Z,18.13
2022-12-26T20:37:25.649Z,20.00
2022-12-26T20:42:27.069Z,24.13
2022-12-26T20:47:30.186Z,18.83
2022-12-26T20:52:31.599Z,23.05
2022-12-26T20:57:33.070Z,24.17
2022-12-26T21:02:34.710Z,16.63
2022-12-26T21:07:36.346Z,26.80
2022-12-26T21:12:37.835Z,16.87
2022-12-26T21:17:39.500Z,16.63
2022-12-26T21:22:41.652Z,22.20
2022-12-26T21:27:43.343Z,20.60
2022-12-26T21:32:46.215Z,19.37
2022-12-26T21:37:53.517Z,11.00
2022-12-26T21:42:55.022Z,14.73
2022-12-26T21:47:56.548Z,18.60
2022-12-26T21:52:58.004Z,10.67
2022-12-26T21:58:00.576Z,12.97
2022-12-26T22:03:21.641Z,10.60
2022-12-26T22:08:23.146Z,8.83
2022-12-26T22:13:25.839Z,10.03
2022-12-26T22:18:27.449Z,10.40
2022-12-26T22:23:28.977Z,7.73
2022-12-26T22:28:31.422Z,14.63
2022-12-26T22:33:33.479Z,12.20
2022-12-26T22:38:36.743Z,15.80
2022-12-26T22:43:38.299Z,15.37
2022-12-26T22:48:40.120Z,16.40
2022-12-26T22:53:42.284Z,21.57
2022-12-26T22:58:43.779Z,14.63
2022-12-26T23:03:45.867Z,11.73
2022-12-26T23:08:48.834Z,11.53
2022-12-26T23:13:50.575Z,14.90
2022-12-26T23:19:16.142Z,18.97
2022-12-26T23:24:19.170Z,6.97
2022-12-26T23:29:41.761Z,12.30
2022-12-26T23:34:43.234Z,18.10
2022-12-26T23:39:44.728Z,21.60
2022-12-26T23:44:46.325Z,15.17
2022-12-26T23:49:47.811Z,9.73
2022-12-26T23:54:49.303Z,13.63
2022-12-26T23:59:50.774Z,17.53
